Hauptseite
METAR-TAF:

METAR-TAF

Flughäfen :

Flughafen Rivera

Rivera, Uruguay

Breite: 30-53S, Länge: 055-32W, Höhe: 205 m

METAR: fehlend

Zeit: 09:31 (12:31 UTC)

Prognose

Neuester Wetterbericht von vor 1 Stunde und 1 Minuten, um 11:30 UTC
Gültige Prognose vom 18 um 12 UTC bis 19 um 12 UTC
Wind 6 kt aus Südost
Sichtweite 10 km oder mehr
keine Wolken unter 1500 m und keine Kumulonimbus oder Gewitterwolken
Wahrscheinlichkeit 30% :
Zeitweise
vom 18 um 15 UTC bis 18 um 22 UTC
Sichtweite: 5000 m
Durchbrochene Bewölkung in der Höhe von 1500 ft
Durchbrochene Bewölkung in der Höhe von 3000 ft
Regenschauer
Zeitweise
vom 19 um 06 UTC bis 19 um 10 UTC
Sichtweite: 0600 m
Durchbrochene Bewölkung in der Höhe von 500 ft
Nebel,

TAF: SURV 181130Z 1812/1912 14006KT CAVOK TX15/1818Z TN04/1910Z PROB30 TEMPO 1815/1822 5000 SHRA BKN015 BKN030 TEMPO 1906/1910 0600 FG BKN005

Wetterbeobachtungen und Prognosen von mehr als 4000 Flughäfen (METAR und TAF Bericht).

Die verfügbaren Stationen werden durch gelbe und rote Markierungen auf der Karte dargestellt.

Führen Sie die Maus auf sie, um den Namen der Station zu sehen.

Darauf klicken, um die Beobachtung von Wetterbeobachtungen und Prognosen zu sehen.

Um die Karte zu ändern : klicken Sie auf den grünen Tasten mit einem schwarzen Kreuz Zum Vergrößern, auf den grünen Button mit einem Gedankenstrich zu verkleinern, oder auf die grünen Pfeile für benachbarte Karten.


METAR-TAF: